createdAt,value
2018-07-14T00:02:29.215Z,6.53
2018-07-14T00:04:59.133Z,6.33
2018-07-14T00:07:28.837Z,6.47
2018-07-14T00:09:58.597Z,6.43
2018-07-14T00:12:28.366Z,6.03
2018-07-14T00:14:58.149Z,5.67
2018-07-14T00:17:27.969Z,6.70
2018-07-14T00:19:57.598Z,5.83
2018-07-14T00:22:27.232Z,6.40
2018-07-14T00:24:57.408Z,6.13
2018-07-14T00:27:27.624Z,6.20
2018-07-14T00:29:57.343Z,6.73
2018-07-14T00:32:27.174Z,6.03
2018-07-14T00:34:56.772Z,5.90
2018-07-14T00:37:26.380Z,6.17
2018-07-14T00:39:56.387Z,6.20
2018-07-14T00:42:26.098Z,5.83
2018-07-14T00:44:55.806Z,6.10
2018-07-14T00:47:25.831Z,6.20
2018-07-14T00:49:56.040Z,5.70
2018-07-14T00:52:26.169Z,5.40
2018-07-14T00:54:55.857Z,5.43
2018-07-14T00:57:25.589Z,5.90
2018-07-14T00:59:56.230Z,6.07
2018-07-14T01:02:26.131Z,5.57
2018-07-14T01:04:56.048Z,5.60
2018-07-14T01:07:25.644Z,5.97
2018-07-14T01:09:55.258Z,5.40
2018-07-14T01:12:25.370Z,6.23
2018-07-14T01:14:55.076Z,5.93
2018-07-14T01:17:24.580Z,5.63
2018-07-14T01:19:54.190Z,6.33
2018-07-14T01:22:23.800Z,5.40
2018-07-14T01:24:53.228Z,5.93
2018-07-14T01:27:22.808Z,6.47
2018-07-14T01:29:52.418Z,5.80
2018-07-14T01:32:22.230Z,5.20
2018-07-14T01:34:52.351Z,5.50
2018-07-14T01:37:21.849Z,5.50
2018-07-14T01:39:51.559Z,6.00
2018-07-14T01:42:20.848Z,5.50
2018-07-14T01:44:50.877Z,5.40
2018-07-14T01:47:20.580Z,6.40
2018-07-14T01:49:50.591Z,6.10
2018-07-14T01:52:20.100Z,5.50
2018-07-14T01:54:49.809Z,5.43
2018-07-14T01:57:19.420Z,5.63
2018-07-14T01:59:49.140Z,5.77
2018-07-14T02:02:18.732Z,6.10
2018-07-14T02:04:48.129Z,6.00
2018-07-14T02:07:17.629Z,5.50
2018-07-14T02:09:47.044Z,6.23
2018-07-14T02:12:16.969Z,5.87
2018-07-14T02:14:46.988Z,5.83
2018-07-14T02:17:16.581Z,6.07
2018-07-14T02:19:45.982Z,5.63
2018-07-14T02:22:15.609Z,5.50
2018-07-14T02:24:45.199Z,5.67
2018-07-14T02:27:14.803Z,5.87
2018-07-14T02:29:44.109Z,5.97
2018-07-14T02:32:13.808Z,6.57
2018-07-14T02:34:43.520Z,6.47
2018-07-14T02:37:13.239Z,6.03
2018-07-14T02:39:43.159Z,6.23
2018-07-14T02:42:13.169Z,6.23
2018-07-14T02:44:42.873Z,6.37
2018-07-14T02:47:12.580Z,6.50
2018-07-14T02:49:42.179Z,6.77
2018-07-14T02:52:11.916Z,7.10
2018-07-14T02:54:41.818Z,7.00
2018-07-14T02:57:11.619Z,7.13
2018-07-14T02:59:41.088Z,7.60
2018-07-14T03:02:10.618Z,6.80
2018-07-14T03:04:40.352Z,6.33
2018-07-14T03:07:09.739Z,7.30
2018-07-14T03:09:39.149Z,6.33
2018-07-14T03:12:08.959Z,6.37
2018-07-14T03:14:38.880Z,6.40
2018-07-14T03:17:08.899Z,6.20
2018-07-14T03:19:38.602Z,6.63
2018-07-14T03:22:08.414Z,5.97
2018-07-14T03:24:38.639Z,6.80
2018-07-14T03:27:08.339Z,7.00
2018-07-14T03:29:38.051Z,6.33
2018-07-14T03:32:07.471Z,7.10
2018-07-14T03:34:37.169Z,7.57
2018-07-14T03:37:07.230Z,6.10
2018-07-14T03:39:37.077Z,6.70
2018-07-14T03:42:06.829Z,6.60
2018-07-14T03:44:36.511Z,6.53
2018-07-14T03:47:06.219Z,6.47
2018-07-14T03:49:35.720Z,6.70
2018-07-14T03:52:05.243Z,6.77
2018-07-14T03:54:35.148Z,7.27
2018-07-14T03:57:05.062Z,6.50
2018-07-14T03:59:34.777Z,6.83
2018-07-14T04:02:04.793Z,7.50
2018-07-14T04:04:34.801Z,6.80
2018-07-14T04:07:04.208Z,6.57
2018-07-14T04:09:33.693Z,6.70
2018-07-14T04:12:03.621Z,7.27
2018-07-14T04:14:33.521Z,6.83
2018-07-14T04:17:03.065Z,6.93
2018-07-14T04:19:33.070Z,6.57
2018-07-14T04:22:09.232Z,6.70
2018-07-14T04:24:39.141Z,6.77
2018-07-14T04:27:08.742Z,7.43
2018-07-14T04:29:38.347Z,7.20
2018-07-14T04:32:08.177Z,7.13
2018-07-14T04:34:38.069Z,6.93
2018-07-14T04:37:07.569Z,7.47
2018-07-14T04:39:37.190Z,7.80
2018-07-14T04:42:07.006Z,7.53
2018-07-14T04:44:37.121Z,7.00
2018-07-14T04:47:07.018Z,6.47
2018-07-14T04:49:37.055Z,7.00
2018-07-14T04:52:06.740Z,6.90
2018-07-14T04:54:36.464Z,7.17
2018-07-14T04:57:06.230Z,7.57
2018-07-14T04:59:37.119Z,7.10
2018-07-14T05:02:07.238Z,7.13
2018-07-14T05:04:36.830Z,6.70
2018-07-14T05:07:07.171Z,6.77
2018-07-14T05:09:36.979Z,8.03
2018-07-14T05:12:07.234Z,6.20
2018-07-14T05:14:36.999Z,7.20
2018-07-14T05:17:07.033Z,6.43
2018-07-14T05:19:37.035Z,6.07
2018-07-14T05:22:07.465Z,6.20
2018-07-14T05:24:37.164Z,6.27
2018-07-14T05:27:07.184Z,6.47
2018-07-14T05:29:36.687Z,7.40
2018-07-14T05:32:06.495Z,6.30
2018-07-14T05:34:35.994Z,5.90
2018-07-14T05:37:05.625Z,6.77
2018-07-14T05:39:35.948Z,6.23
2018-07-14T05:42:06.381Z,7.10
2018-07-14T05:44:36.163Z,6.27
2018-07-14T05:47:06.085Z,6.10
2018-07-14T05:49:36.006Z,5.77
2018-07-14T05:52:05.713Z,5.83
2018-07-14T05:54:35.849Z,5.50
2018-07-14T05:57:06.661Z,6.47
2018-07-14T05:59:36.169Z,6.40
2018-07-14T06:02:05.777Z,7.10
2018-07-14T06:04:35.473Z,6.30
2018-07-14T06:07:05.593Z,6.27
2018-07-14T06:09:35.425Z,6.70
2018-07-14T06:12:05.147Z,6.27
2018-07-14T06:14:35.293Z,6.57
2018-07-14T06:17:05.186Z,6.90
2018-07-14T06:19:35.081Z,6.43
2018-07-14T06:22:05.104Z,6.50
2018-07-14T06:24:35.424Z,6.40
2018-07-14T06:27:05.236Z,6.20
2018-07-14T06:29:35.036Z,6.10
2018-07-14T06:32:04.803Z,6.93
2018-07-14T06:34:34.443Z,6.70
2018-07-14T06:37:04.463Z,5.77
2018-07-14T06:39:35.703Z,6.70
2018-07-14T06:42:05.940Z,6.17
2018-07-14T06:44:35.754Z,6.13
2018-07-14T06:47:05.973Z,6.00
2018-07-14T06:49:35.693Z,5.63
2018-07-14T06:52:06.311Z,5.93
2018-07-14T06:54:37.445Z,5.87
2018-07-14T06:57:07.566Z,5.77
2018-07-14T06:59:37.484Z,5.33
2018-07-14T07:02:07.604Z,5.93
2018-07-14T07:04:38.863Z,5.50
2018-07-14T07:07:09.063Z,5.93
2018-07-14T07:09:39.007Z,5.97
2018-07-14T07:12:09.236Z,6.07
2018-07-14T07:14:39.489Z,6.27
2018-07-14T07:17:09.972Z,6.00
2018-07-14T07:19:40.204Z,6.20
2018-07-14T07:22:10.236Z,5.30
2018-07-14T07:24:40.243Z,6.63
2018-07-14T07:27:10.236Z,5.40
2018-07-14T07:29:41.498Z,6.27
2018-07-14T07:32:11.483Z,5.47
2018-07-14T07:34:41.586Z,6.43
2018-07-14T07:37:11.743Z,5.50
2018-07-14T07:39:42.055Z,5.37
2018-07-14T07:42:12.119Z,6.30
2018-07-14T07:44:42.383Z,5.67
2018-07-14T07:47:12.505Z,5.20
2018-07-14T07:49:44.050Z,5.67
2018-07-14T07:52:13.963Z,5.93
2018-07-14T07:54:44.095Z,5.80
2018-07-14T07:57:14.616Z,6.00
2018-07-14T07:59:45.143Z,5.53
2018-07-14T08:02:14.958Z,5.47
2018-07-14T08:04:44.876Z,5.10
2018-07-14T08:07:14.995Z,5.03
2018-07-14T08:09:45.522Z,4.87
2018-07-14T08:12:19.848Z,6.17
2018-07-14T08:14:49.955Z,4.97
2018-07-14T08:17:20.171Z,5.27
2018-07-14T08:19:50.823Z,5.40
2018-07-14T08:22:20.923Z,5.30
2018-07-14T08:24:51.062Z,5.20
2018-07-14T08:27:21.193Z,5.17
2018-07-14T08:29:50.982Z,5.33
2018-07-14T08:32:20.903Z,5.00
2018-07-14T08:34:50.830Z,4.80
2018-07-14T08:37:20.716Z,4.42
2018-07-14T08:39:50.843Z,4.33
2018-07-14T08:42:20.943Z,4.40
2018-07-14T08:44:51.079Z,5.20
2018-07-14T08:47:23.855Z,4.50
2018-07-14T08:49:54.114Z,4.80
2018-07-14T08:52:23.995Z,4.93
2018-07-14T08:54:54.235Z,5.23
2018-07-14T08:57:23.923Z,4.67
2018-07-14T08:59:53.735Z,5.33
2018-07-14T09:02:24.163Z,4.87
2018-07-14T09:04:53.967Z,4.80
2018-07-14T09:07:24.104Z,5.00
2018-07-14T09:09:54.108Z,5.50
2018-07-14T09:12:24.143Z,5.00
2018-07-14T09:14:54.443Z,4.17
2018-07-14T09:17:24.387Z,4.50
2018-07-14T09:19:54.703Z,4.67
2018-07-14T09:22:24.495Z,5.20
2018-07-14T09:24:54.623Z,4.43
2018-07-14T09:27:24.436Z,3.97
2018-07-14T09:29:54.455Z,5.00
2018-07-14T09:32:25.205Z,4.70
2018-07-14T09:34:55.203Z,4.13
2018-07-14T09:37:25.223Z,4.57
2018-07-14T09:39:55.635Z,4.53
2018-07-14T09:42:26.383Z,4.30
2018-07-14T09:44:56.590Z,4.23
2018-07-14T09:47:27.044Z,5.37
2018-07-14T09:49:56.931Z,5.47
2018-07-14T09:52:27.563Z,4.90
2018-07-14T09:54:58.804Z,4.73
2018-07-14T09:57:34.470Z,4.30
2018-07-14T10:00:10.950Z,4.60
2018-07-14T10:02:40.735Z,4.10
2018-07-14T10:05:11.476Z,4.63
2018-07-14T10:07:41.993Z,5.13
2018-07-14T10:10:12.023Z,4.70
2018-07-14T10:12:42.130Z,4.57
2018-07-14T10:15:12.229Z,4.40
2018-07-14T10:17:42.650Z,4.17
2018-07-14T10:20:13.105Z,4.00
2018-07-14T10:22:43.433Z,3.93
2018-07-14T10:25:15.536Z,3.70
2018-07-14T10:27:46.124Z,3.50
2018-07-14T10:30:17.603Z,4.20
2018-07-14T10:32:47.484Z,3.80
2018-07-14T10:35:17.504Z,3.93
2018-07-14T10:37:47.638Z,3.93
2018-07-14T10:40:18.155Z,3.60
2018-07-14T10:42:48.244Z,3.90
2018-07-14T10:45:22.483Z,3.73
2018-07-14T10:47:52.611Z,4.77
2018-07-14T10:50:22.624Z,4.10
2018-07-14T10:52:53.040Z,3.90
2018-07-14T10:55:23.073Z,3.70
2018-07-14T10:57:53.236Z,3.77
2018-07-14T11:00:23.511Z,4.10
2018-07-14T11:02:53.523Z,3.60
2018-07-14T11:05:24.230Z,4.00
2018-07-14T11:07:54.072Z,3.70
2018-07-14T11:10:24.598Z,4.27
2018-07-14T11:12:54.515Z,4.33
2018-07-14T11:15:25.145Z,4.43
2018-07-14T11:17:55.677Z,4.50
2018-07-14T11:20:26.825Z,4.50
2018-07-14T11:22:57.444Z,4.20
2018-07-14T11:25:33.916Z,4.43
2018-07-14T11:28:12.843Z,4.47
2018-07-14T11:30:45.432Z,4.10
2018-07-14T11:33:16.165Z,4.67
2018-07-14T11:35:46.474Z,4.03
2018-07-14T11:38:16.788Z,4.73
2018-07-14T11:40:47.241Z,4.47
2018-07-14T11:43:17.754Z,5.30
2018-07-14T11:45:48.083Z,4.63
2018-07-14T11:48:18.091Z,4.43
2018-07-14T11:50:47.989Z,4.50
2018-07-14T11:53:18.542Z,4.13
2018-07-14T11:55:49.064Z,3.70
2018-07-14T11:58:19.202Z,3.80
2018-07-14T12:00:49.923Z,3.80
2018-07-14T12:03:20.035Z,3.90
2018-07-14T12:05:50.229Z,4.50
2018-07-14T12:08:20.590Z,3.80
2018-07-14T12:10:51.103Z,3.80
2018-07-14T12:13:22.495Z,4.30
2018-07-14T12:15:53.235Z,3.27
2018-07-14T12:18:23.625Z,4.07
2018-07-14T12:20:53.632Z,4.03
2018-07-14T12:23:23.443Z,3.73
2018-07-14T12:25:54.495Z,3.90
2018-07-14T12:28:24.610Z,3.20
2018-07-14T12:30:54.420Z,3.53
2018-07-14T12:33:24.445Z,4.10
2018-07-14T12:35:54.764Z,4.43
2018-07-14T12:38:24.153Z,4.47
2018-07-14T12:40:53.883Z,4.10
2018-07-14T12:43:23.851Z,4.00
2018-07-14T12:45:53.603Z,4.07
2018-07-14T12:48:30.063Z,4.00
2018-07-14T12:50:59.884Z,4.20
2018-07-14T12:53:30.506Z,3.97
2018-07-14T12:56:00.724Z,4.37
2018-07-14T12:58:31.303Z,3.57
2018-07-14T13:01:01.904Z,4.10
2018-07-14T13:03:32.626Z,4.10
2018-07-14T13:06:02.538Z,3.80
2018-07-14T13:08:32.364Z,3.97
2018-07-14T13:11:02.871Z,4.20
2018-07-14T13:13:33.204Z,3.70
2018-07-14T13:16:03.004Z,3.97
2018-07-14T13:18:32.723Z,5.93
2018-07-14T13:21:03.028Z,5.93
2018-07-14T13:23:33.384Z,4.53
2018-07-14T13:26:04.256Z,3.40
2018-07-14T13:28:34.644Z,4.17
2018-07-14T13:31:04.752Z,3.50
2018-07-14T13:33:35.176Z,3.53
2018-07-14T13:36:04.984Z,3.73
2018-07-14T13:38:35.616Z,4.20
2018-07-14T13:41:05.524Z,3.50
2018-07-14T13:43:34.937Z,3.73
2018-07-14T13:46:05.046Z,3.73
2018-07-14T13:48:35.164Z,3.53
2018-07-14T13:51:05.236Z,3.50
2018-07-14T13:53:35.204Z,3.13
2018-07-14T13:56:05.211Z,3.73
2018-07-14T13:58:38.604Z,3.70
2018-07-14T14:01:09.152Z,3.80
2018-07-14T14:03:38.755Z,3.90
2018-07-14T14:06:08.564Z,4.03
2018-07-14T14:08:38.986Z,4.03
2018-07-14T14:11:13.237Z,3.77
2018-07-14T14:13:44.144Z,3.83
2018-07-14T14:16:14.256Z,3.50
2018-07-14T14:18:44.066Z,3.13
2018-07-14T14:21:13.776Z,3.30
2018-07-14T14:23:43.583Z,3.30
2018-07-14T14:26:13.403Z,3.23
2018-07-14T14:28:43.205Z,3.07
2018-07-14T14:31:13.243Z,3.00
2018-07-14T14:33:42.943Z,3.90
2018-07-14T14:36:13.776Z,3.50
2018-07-14T14:38:48.604Z,4.57
2018-07-14T14:41:18.204Z,3.83
2018-07-14T14:43:55.096Z,4.20
2018-07-14T14:46:27.156Z,3.93
2018-07-14T14:49:03.312Z,3.80
2018-07-14T14:51:33.443Z,4.30
2018-07-14T14:54:03.456Z,3.50
2018-07-14T14:56:33.565Z,4.17
2018-07-14T14:59:08.403Z,4.30
2018-07-14T15:01:42.416Z,4.37
2018-07-14T15:04:13.452Z,3.90
2018-07-14T15:06:51.775Z,4.20
2018-07-14T15:09:23.116Z,3.80
2018-07-14T15:14:31.539Z,3.80
2018-07-14T15:17:03.816Z,3.70
2018-07-14T15:19:34.844Z,3.67
2018-07-14T15:22:04.895Z,3.33
2018-07-14T15:24:34.365Z,3.47
2018-07-14T15:27:03.976Z,3.70
2018-07-14T15:29:33.591Z,3.43
2018-07-14T15:32:03.183Z,3.80
2018-07-14T15:34:32.695Z,3.93
2018-07-14T15:37:02.235Z,3.63
2018-07-14T15:39:32.224Z,3.50
2018-07-14T15:42:01.824Z,3.50
2018-07-14T15:44:31.832Z,4.00
2018-07-14T15:47:01.766Z,4.33
2018-07-14T15:49:31.145Z,3.80
2018-07-14T15:52:00.873Z,4.17
2018-07-14T15:54:30.464Z,3.70
2018-07-14T15:57:00.183Z,4.47
2018-07-14T15:59:30.179Z,3.93
2018-07-14T16:02:00.517Z,4.00
2018-07-14T16:04:30.336Z,3.67
2018-07-14T16:07:00.235Z,4.93
2018-07-14T16:09:30.263Z,4.10
2018-07-14T16:12:00.085Z,3.83
2018-07-14T16:14:29.984Z,3.80
2018-07-14T16:16:59.603Z,3.63
2018-07-14T16:19:29.304Z,3.67
2018-07-14T16:21:59.643Z,3.80
2018-07-14T16:24:29.443Z,3.83
2018-07-14T16:27:02.239Z,4.20
2018-07-14T16:29:32.243Z,3.83
2018-07-14T16:32:02.056Z,4.40
2018-07-14T16:34:32.583Z,3.80
2018-07-14T16:37:02.605Z,4.03
2018-07-14T16:39:32.236Z,3.93
2018-07-14T16:42:02.124Z,3.37
2018-07-14T16:44:32.547Z,3.60
2018-07-14T16:47:03.384Z,3.90
2018-07-14T16:49:33.704Z,4.07
2018-07-14T16:52:04.636Z,4.53
2018-07-14T16:54:36.194Z,3.80
2018-07-14T16:57:09.783Z,3.87
2018-07-14T16:59:39.496Z,4.10
2018-07-14T17:02:10.239Z,4.30
2018-07-14T17:04:39.736Z,3.53
2018-07-14T17:07:09.241Z,4.27
2018-07-14T17:09:39.565Z,3.80
2018-07-14T17:12:09.996Z,4.10
2018-07-14T17:14:40.017Z,4.33
2018-07-14T17:17:10.236Z,4.67
2018-07-14T17:19:45.464Z,4.10
2018-07-14T17:22:16.096Z,4.63
2018-07-14T17:24:47.044Z,4.80
2018-07-14T17:27:18.696Z,4.00
2018-07-14T17:29:49.936Z,4.93
2018-07-14T17:32:21.795Z,5.40
2018-07-14T17:34:51.704Z,4.57
2018-07-14T17:37:21.824Z,4.50
2018-07-14T17:39:51.744Z,4.80
2018-07-14T17:42:22.388Z,5.27
2018-07-14T17:44:52.603Z,5.33
2018-07-14T17:47:22.415Z,6.20
2018-07-14T17:49:52.626Z,4.97
2018-07-14T17:52:22.751Z,4.50
2018-07-14T17:54:53.177Z,5.23
2018-07-14T17:57:24.145Z,5.17
2018-07-14T17:59:57.622Z,4.27
2018-07-14T18:02:27.636Z,5.23
2018-07-14T18:04:57.656Z,5.27
2018-07-14T18:07:27.452Z,5.40
2018-07-14T18:09:57.484Z,4.60
2018-07-14T18:12:29.743Z,4.50
2018-07-14T18:15:02.224Z,4.93
2018-07-14T18:17:32.945Z,5.00
2018-07-14T18:20:03.585Z,4.43
2018-07-14T18:22:33.696Z,4.97
2018-07-14T18:25:03.716Z,4.77
2018-07-14T18:27:34.144Z,5.53
2018-07-14T18:30:05.231Z,6.00
2018-07-14T18:32:35.604Z,6.17
2018-07-14T18:35:10.943Z,6.23
2018-07-14T18:37:41.577Z,5.13
2018-07-14T18:40:11.496Z,6.03
2018-07-14T18:42:41.816Z,6.10
2018-07-14T18:45:21.236Z,6.10
2018-07-14T18:47:52.804Z,5.93
2018-07-14T18:50:33.255Z,7.00
2018-07-14T18:53:11.992Z,8.80
2018-07-14T18:55:44.784Z,9.80
2018-07-14T18:58:17.247Z,12.63
2018-07-14T19:00:59.156Z,14.47
2018-07-14T19:03:32.444Z,13.60
2018-07-14T19:06:03.477Z,8.73
2018-07-14T19:08:33.891Z,8.47
2018-07-14T19:11:04.029Z,7.33
2018-07-14T19:13:33.925Z,6.50
2018-07-14T19:16:04.243Z,6.03
2018-07-14T19:18:34.169Z,5.63
2018-07-14T19:21:03.943Z,6.20
2018-07-14T19:23:33.825Z,6.70
2018-07-14T19:26:04.196Z,9.17
2018-07-14T19:28:33.848Z,9.10
2018-07-14T19:31:03.632Z,8.47
2018-07-14T19:33:35.508Z,6.93
2018-07-14T19:36:05.524Z,5.97
2018-07-14T19:38:35.223Z,6.37
2018-07-14T19:41:05.756Z,7.63
2018-07-14T19:43:35.564Z,6.83
2018-07-14T19:46:05.692Z,6.27
2018-07-14T19:48:36.116Z,6.27
2018-07-14T19:51:05.664Z,5.63
2018-07-14T19:53:36.447Z,6.20
2018-07-14T19:56:06.406Z,6.37
2018-07-14T19:58:37.100Z,6.30
2018-07-14T20:01:07.211Z,6.13
2018-07-14T20:03:37.023Z,6.20
2018-07-14T20:06:07.393Z,6.53
2018-07-14T20:08:37.571Z,6.03
2018-07-14T20:11:08.411Z,6.17
2018-07-14T20:13:38.018Z,6.83
2018-07-14T20:16:08.024Z,6.30
2018-07-14T20:18:38.243Z,6.13
2018-07-14T20:21:08.164Z,7.07
2018-07-14T20:23:38.195Z,7.40
2018-07-14T20:26:07.583Z,7.00
2018-07-14T20:28:37.397Z,7.60
2018-07-14T20:31:13.757Z,6.60
2018-07-14T20:33:43.983Z,6.90
2018-07-14T20:36:14.212Z,7.50
2018-07-14T20:38:44.127Z,7.40
2018-07-14T20:41:13.725Z,7.80
2018-07-14T20:43:43.539Z,7.33
2018-07-14T20:46:13.238Z,7.80
2018-07-14T20:48:43.055Z,8.50
2018-07-14T20:51:13.184Z,9.43
2018-07-14T20:53:43.403Z,11.67
2018-07-14T20:56:13.724Z,10.13
2018-07-14T20:58:43.644Z,10.60
2018-07-14T21:01:14.175Z,11.23
2018-07-14T21:03:43.880Z,10.67
2018-07-14T21:06:13.395Z,10.37
2018-07-14T21:08:43.399Z,10.00
2018-07-14T21:11:12.696Z,9.90
2018-07-14T21:13:42.503Z,9.33
2018-07-14T21:16:12.240Z,8.83
2018-07-14T21:18:42.047Z,8.23
2018-07-14T21:21:11.713Z,8.63
2018-07-14T21:23:41.232Z,7.80
2018-07-14T21:26:11.244Z,7.70
2018-07-14T21:28:41.384Z,8.00
2018-07-14T21:31:11.209Z,7.63
2018-07-14T21:33:40.585Z,7.57
2018-07-14T21:36:10.303Z,7.83
2018-07-14T21:38:40.124Z,7.43
2018-07-14T21:41:09.715Z,8.07
2018-07-14T21:43:39.544Z,7.53
2018-07-14T21:46:09.340Z,7.43
2018-07-14T21:48:38.847Z,8.43
2018-07-14T21:51:08.562Z,7.40
2018-07-14T21:53:38.371Z,7.40
2018-07-14T21:56:08.186Z,7.37
2018-07-14T21:58:38.731Z,8.13
2018-07-14T22:01:12.622Z,8.30
2018-07-14T22:03:42.246Z,7.43
2018-07-14T22:06:11.735Z,8.63
2018-07-14T22:08:41.764Z,7.07
2018-07-14T22:11:11.663Z,7.90
2018-07-14T22:13:41.464Z,8.80
2018-07-14T22:16:11.201Z,8.40
2018-07-14T22:18:40.701Z,8.30
2018-07-14T22:21:10.412Z,7.97
2018-07-14T22:23:40.122Z,7.87
2018-07-14T22:26:10.039Z,8.20
2018-07-14T22:28:39.627Z,7.90
2018-07-14T22:31:10.365Z,7.70
2018-07-14T22:33:40.241Z,8.03
2018-07-14T22:36:10.250Z,7.80
2018-07-14T22:38:40.436Z,8.00
2018-07-14T22:41:10.531Z,7.73
2018-07-14T22:43:40.748Z,7.10
2018-07-14T22:46:10.564Z,7.50
2018-07-14T22:48:40.582Z,7.37
2018-07-14T22:51:10.690Z,7.10
2018-07-14T22:53:40.505Z,6.90
2018-07-14T22:56:10.436Z,7.00
2018-07-14T22:58:39.935Z,6.10
2018-07-14T23:01:09.737Z,7.27
2018-07-14T23:03:39.450Z,6.97
2018-07-14T23:06:08.853Z,7.47
2018-07-14T23:08:38.571Z,7.27
2018-07-14T23:11:08.989Z,6.93
2018-07-14T23:13:39.430Z,7.33
2018-07-14T23:16:09.132Z,6.90
2018-07-14T23:18:39.146Z,6.83
2018-07-14T23:21:08.957Z,7.20
2018-07-14T23:23:38.869Z,6.50
2018-07-14T23:26:08.604Z,7.17
2018-07-14T23:28:38.603Z,6.97
2018-07-14T23:31:08.605Z,6.90
2018-07-14T23:33:38.229Z,6.83
2018-07-14T23:36:08.231Z,7.23
2018-07-14T23:38:38.863Z,6.90
2018-07-14T23:41:08.789Z,6.47
2018-07-14T23:43:38.583Z,6.97
2018-07-14T23:46:08.431Z,6.87
2018-07-14T23:48:38.230Z,6.97
2018-07-14T23:51:08.348Z,6.47
2018-07-14T23:53:38.032Z,7.10
2018-07-14T23:56:08.084Z,6.73
2018-07-14T23:58:38.192Z,6.70
